Terminal Aerodrome Forecast
Issued by NWS Shreveport, LA

Home | Current Version | Previous Version | Text Only | Print | Product List | Glossary On
Versions: 1 2 3 4 5 6 7 8 9 10 11 12 13 14 15 16
000
FTUS44 KSHV 040539
TAFSHV
TAF
KSHV 040539Z 0406/0506 23003KT P6SM SCT045 BKN250
     FM041000 21005KT P6SM SCT010 BKN100 OVC150
      TEMPO 0410/0414 BKN010
     FM041600 24007KT P6SM VCTS SCT050CB BKN100 OVC150
     FM042100 24007KT P6SM BKN045
     FM050300 18004KT P6SM BKN110=

USA.gov is the U.S. government's official web portal to all federal, state and local government web resources and services.